Time;durP1;ratioP1;P1;durP2;ratioP2;P2;SDS_P1;SDS_P2;PMS_P1;PMS_P2;Temp;Humidity;BMP_temperature;BMP_pressure;BME280_temperature;BME280_humidity;BME280_pressure;Samples;Min_cycle;Max_cycle;Signal;HPM_P1;HPM_P2
2022/09/17 00:01:23;;;;;;;17.73;3.30;;;12.20;99.90;;;;;;5042471;28;20191;-46
2022/09/17 00:03:52;;;;;;;17.60;3.27;;;12.20;99.90;;;;;;5044159;28;20274;-48
2022/09/17 00:06:21;;;;;;;16.70;3.30;;;12.20;99.90;;;;;;5042044;28;20333;-49
2022/09/17 00:08:50;;;;;;;18.10;3.20;;;12.10;99.90;;;;;;5032214;28;20203;-52
2022/09/17 00:11:19;;;;;;;18.63;3.53;;;12.20;99.90;;;;;;5041140;28;20293;-50
2022/09/17 00:13:48;;;;;;;18.93;3.13;;;12.10;99.90;;;;;;5043913;28;20217;-49
2022/09/17 00:16:23;;;;;;;17.80;3.27;;;12.10;99.90;;;;;;5040867;28;20206;-50
2022/09/17 00:18:50;;;;;;;17.93;3.50;;;12.20;99.90;;;;;;5045280;28;20582;-48
2022/09/17 00:21:18;;;;;;;15.53;3.20;;;12.20;99.90;;;;;;5041237;28;20195;-52
2022/09/17 00:23:45;;;;;;;16.00;2.90;;;12.10;99.90;;;;;;5043397;28;20201;-50
2022/09/17 00:26:14;;;;;;;18.30;3.40;;;12.10;99.90;;;;;;5027859;28;20871;-53
2022/09/17 00:28:44;;;;;;;13.23;2.70;;;12.10;99.90;;;;;;5044600;28;20191;-47
2022/09/17 00:31:11;;;;;;;17.20;3.60;;;12.10;99.90;;;;;;5040738;28;20278;-48
2022/09/17 00:33:37;;;;;;;17.37;3.93;;;12.10;99.90;;;;;;5043812;28;20711;-50
2022/09/17 00:36:05;;;;;;;18.70;3.40;;;12.10;99.90;;;;;;5041755;28;20215;-53
2022/09/17 00:38:33;;;;;;;18.63;4.50;;;12.10;99.90;;;;;;5043886;28;20209;-50
2022/09/17 00:41:00;;;;;;;19.50;3.03;;;12.10;99.90;;;;;;5030027;28;20203;-53
2022/09/17 00:43:38;;;;;;;17.90;3.13;;;12.10;99.90;;;;;;5041529;28;20925;-50
2022/09/17 00:46:10;;;;;;;14.83;2.83;;;12.10;99.90;;;;;;5041525;28;20215;-49
2022/09/17 00:48:37;;;;;;;18.73;3.03;;;12.00;99.90;;;;;;5044717;28;20283;-49
2022/09/17 00:51:07;;;;;;;16.43;3.63;;;12.00;99.90;;;;;;5041638;28;20210;-50
2022/09/17 00:53:34;;;;;;;15.10;2.80;;;12.00;99.90;;;;;;5042810;28;20286;-50
2022/09/17 00:56:04;;;;;;;20.20;3.30;;;12.00;99.90;;;;;;5029362;28;20226;-50
2022/09/17 00:58:33;;;;;;;20.10;2.80;;;12.00;99.90;;;;;;5042957;28;20207;-49
2022/09/17 01:01:01;;;;;;;15.03;3.07;;;12.00;99.90;;;;;;5042410;28;20674;-47
2022/09/17 01:03:28;;;;;;;16.33;2.70;;;12.00;99.90;;;;;;5041624;28;20184;-47
2022/09/17 01:06:03;;;;;;;16.73;3.20;;;11.90;99.90;;;;;;5043255;28;20211;-52
2022/09/17 01:08:39;;;;;;;14.13;3.03;;;11.90;99.90;;;;;;5042730;28;20257;-48
2022/09/17 01:11:19;;;;;;;16.13;2.57;;;11.90;99.90;;;;;;5030179;28;20195;-47
2022/09/17 01:14:01;;;;;;;11.73;2.77;;;11.90;99.90;;;;;;5042720;28;20234;-50
2022/09/17 01:16:37;;;;;;;18.23;3.20;;;11.90;99.90;;;;;;5042774;28;20275;-51
2022/09/17 01:19:24;;;;;;;15.37;3.10;;;11.90;99.90;;;;;;5041148;28;20211;-50
2022/09/17 01:22:01;;;;;;;12.90;3.27;;;11.80;99.90;;;;;;5043577;28;20210;-52
2022/09/17 01:24:46;;;;;;;12.93;3.33;;;11.80;99.90;;;;;;5040791;28;20215;-50
2022/09/17 01:27:42;;;;;;;16.10;2.57;;;11.80;99.90;;;;;;5017906;28;20196;-49
2022/09/17 01:30:18;;;;;;;13.73;2.60;;;11.80;99.90;;;;;;5039882;28;20187;-53
2022/09/17 01:32:52;;;;;;;15.90;3.13;;;11.80;99.90;;;;;;5043535;28;20232;-50
2022/09/17 01:35:25;;;;;;;17.43;3.03;;;11.70;99.90;;;;;;5039307;28;20837;-50
2022/09/17 01:37:59;;;;;;;17.93;3.30;;;11.70;99.90;;;;;;5042833;28;20202;-51
2022/09/17 01:40:31;;;;;;;16.70;2.63;;;11.70;99.90;;;;;;5041667;28;20218;-50
2022/09/17 01:43:03;;;;;;;13.63;2.50;;;11.70;99.90;;;;;;5028286;28;20207;-50
2022/09/17 01:45:35;;;;;;;12.83;2.80;;;11.70;99.90;;;;;;5041737;28;20265;-48
2022/09/17 01:48:10;;;;;;;16.43;2.60;;;11.70;99.90;;;;;;5041069;28;20191;-53
2022/09/17 01:50:42;;;;;;;15.10;2.70;;;11.70;99.90;;;;;;5043652;28;20210;-49
2022/09/17 01:53:11;;;;;;;11.80;2.33;;;11.70;99.90;;;;;;5038402;28;20268;-51
2022/09/17 01:55:40;;;;;;;17.03;2.53;;;11.70;99.90;;;;;;5034435;28;20219;-49
2022/09/17 01:58:12;;;;;;;13.97;1.90;;;11.70;99.90;;;;;;5022053;28;20211;-49
2022/09/17 02:00:43;;;;;;;13.90;2.40;;;11.70;99.90;;;;;;5037323;28;21024;-48
2022/09/17 02:03:17;;;;;;;7.07;2.40;;;11.70;99.90;;;;;;5041042;28;20191;-48
2022/09/17 02:05:48;;;;;;;17.57;3.23;;;11.70;99.90;;;;;;5039599;28;20203;-49
2022/09/17 02:08:20;;;;;;;12.23;2.37;;;11.70;99.90;;;;;;5043134;28;20195;-47
2022/09/17 02:10:52;;;;;;;13.87;2.53;;;11.70;99.90;;;;;;5040408;28;20932;-48
2022/09/17 02:13:22;;;;;;;10.03;2.20;;;11.70;99.90;;;;;;5028558;28;20636;-53
2022/09/17 02:15:53;;;;;;;15.00;2.90;;;11.70;99.90;;;;;;5040460;28;20410;-50
2022/09/17 02:18:28;;;;;;;10.60;2.23;;;11.70;99.90;;;;;;5042510;28;20194;-50
2022/09/17 02:21:03;;;;;;;14.43;2.60;;;11.70;99.90;;;;;;5042191;28;20252;-46
2022/09/17 02:23:36;;;;;;;12.27;2.80;;;11.70;99.90;;;;;;5038692;28;20645;-52
2022/09/17 02:26:10;;;;;;;15.37;2.43;;;11.70;99.90;;;;;;5043157;28;20226;-50
2022/09/17 02:28:44;;;;;;;14.60;2.80;;;11.70;99.90;;;;;;5025523;28;20219;-49
2022/09/17 02:31:12;;;;;;;14.23;2.13;;;11.70;99.90;;;;;;5042931;28;20214;-46
2022/09/17 02:33:43;;;;;;;13.00;2.00;;;11.70;99.90;;;;;;5037732;28;20188;-49
2022/09/17 02:36:10;;;;;;;10.73;1.90;;;11.70;99.90;;;;;;5043162;28;20731;-48
2022/09/17 02:38:41;;;;;;;9.47;2.03;;;11.70;99.90;;;;;;5038796;28;20187;-50
2022/09/17 02:41:16;;;;;;;12.63;2.80;;;11.70;99.90;;;;;;5043027;28;20191;-54
2022/09/17 02:43:57;;;;;;;12.57;2.17;;;11.70;99.90;;;;;;5025521;28;20207;-50
2022/09/17 02:46:54;;;;;;;14.07;2.27;;;11.70;99.90;;;;;;5041096;28;20203;-51
2022/09/17 02:49:42;;;;;;;10.83;2.90;;;11.70;99.90;;;;;;5025550;28;20188;-49
2022/09/17 02:52:17;;;;;;;16.27;2.33;;;11.70;99.90;;;;;;5026750;28;20192;-48
2022/09/17 02:54:55;;;;;;;16.63;2.33;;;11.70;99.90;;;;;;5021961;28;20487;-50
2022/09/17 02:57:28;;;;;;;11.37;2.13;;;11.70;99.90;;;;;;5025421;28;20868;-47
2022/09/17 03:00:02;;;;;;;16.30;2.70;;;11.70;99.90;;;;;;5025626;28;20215;-47
2022/09/17 03:02:33;;;;;;;15.27;2.40;;;11.70;99.90;;;;;;5043561;28;20195;-51
2022/09/17 03:05:04;;;;;;;22.23;3.63;;;11.60;99.90;;;;;;5045456;28;20568;-50
2022/09/17 03:07:31;;;;;;;12.20;2.47;;;11.60;99.90;;;;;;5043438;28;20270;-49
2022/09/17 03:09:58;;;;;;;12.07;2.80;;;11.60;99.90;;;;;;5045540;28;20241;-49
2022/09/17 03:12:26;;;;;;;12.20;2.37;;;11.60;99.90;;;;;;5044232;28;20191;-49
2022/09/17 03:14:52;;;;;;;11.77;2.57;;;11.60;99.90;;;;;;5030521;28;20219;-53
2022/09/17 03:17:19;;;;;;;12.07;2.40;;;11.60;99.90;;;;;;5045285;28;20191;-52
2022/09/17 03:19:46;;;;;;;11.13;2.87;;;11.60;99.90;;;;;;5043047;28;20217;-47
2022/09/17 03:22:15;;;;;;;13.37;2.23;;;11.60;99.90;;;;;;5046203;28;20191;-49
2022/09/17 03:24:41;;;;;;;10.33;2.23;;;11.70;99.90;;;;;;5041068;28;20306;-47
2022/09/17 03:27:08;;;;;;;15.33;2.60;;;11.70;99.90;;;;;;5047323;28;20195;-51
2022/09/17 03:29:35;;;;;;;15.23;2.90;;;11.60;99.90;;;;;;5041641;28;20199;-47
2022/09/17 03:32:02;;;;;;;14.63;2.53;;;11.70;99.90;;;;;;5029730;28;20210;-50
2022/09/17 03:34:29;;;;;;;16.37;2.93;;;11.60;99.90;;;;;;5043985;28;20223;-55
2022/09/17 03:36:55;;;;;;;18.83;2.87;;;11.70;99.90;;;;;;5042920;28;20214;-49
2022/09/17 03:39:23;;;;;;;12.77;2.20;;;11.70;99.90;;;;;;5053173;28;20227;-47
2022/09/17 03:41:50;;;;;;;11.07;1.90;;;11.70;99.90;;;;;;5061718;28;20237;-50
2022/09/17 03:44:18;;;;;;;11.17;2.47;;;11.70;99.90;;;;;;5056582;28;20795;-50
2022/09/17 03:46:45;;;;;;;16.77;2.50;;;11.70;99.90;;;;;;5026931;28;23391;-49
2022/09/17 03:49:12;;;;;;;10.63;2.10;;;11.70;99.90;;;;;;5043163;28;20245;-48
2022/09/17 03:51:38;;;;;;;11.27;2.20;;;11.60;99.90;;;;;;5039272;28;20183;-47
2022/09/17 03:54:06;;;;;;;16.03;2.63;;;11.60;99.90;;;;;;5042641;28;20691;-48
2022/09/17 03:56:34;;;;;;;13.87;2.10;;;11.60;99.90;;;;;;5059782;28;20222;-50
2022/09/17 03:59:01;;;;;;;18.37;2.13;;;11.60;99.90;;;;;;5062253;28;20202;-52
2022/09/17 04:01:29;;;;;;;9.33;2.20;;;11.60;99.90;;;;;;5034415;28;20203;-49
2022/09/17 04:03:57;;;;;;;11.03;2.10;;;11.60;99.90;;;;;;5036879;28;20629;-48
2022/09/17 04:06:24;;;;;;;9.97;2.37;;;11.60;99.90;;;;;;5041269;28;20277;-49
2022/09/17 04:08:50;;;;;;;10.87;2.20;;;11.60;99.90;;;;;;5040654;28;20187;-49
2022/09/17 04:11:17;;;;;;;14.20;1.80;;;11.60;99.90;;;;;;5052842;28;20598;-51
2022/09/17 04:13:46;;;;;;;10.77;2.40;;;11.60;99.90;;;;;;5050628;28;20213;-50
2022/09/17 04:16:13;;;;;;;9.77;2.33;;;11.60;99.90;;;;;;5048014;28;20215;-48
2022/09/17 04:18:40;;;;;;;10.20;2.87;;;11.60;99.90;;;;;;5026942;28;20402;-47
2022/09/17 04:21:07;;;;;;;12.27;2.67;;;11.60;99.90;;;;;;5040884;28;20234;-51
2022/09/17 04:23:34;;;;;;;12.10;1.93;;;11.60;99.90;;;;;;5036922;28;20961;-47
2022/09/17 04:26:00;;;;;;;8.80;1.77;;;11.60;99.90;;;;;;5042427;28;20212;-51
2022/09/17 04:28:27;;;;;;;10.23;2.27;;;11.50;99.90;;;;;;5040558;28;20606;-52
2022/09/17 04:30:56;;;;;;;12.37;2.33;;;11.50;99.90;;;;;;5044358;28;20195;-50
2022/09/17 04:33:23;;;;;;;10.57;1.70;;;11.50;99.90;;;;;;5031011;28;20199;-50
2022/09/17 04:35:50;;;;;;;14.93;2.20;;;11.50;99.90;;;;;;5041576;28;20234;-49
2022/09/17 04:38:19;;;;;;;11.03;2.67;;;11.50;99.90;;;;;;5042683;28;20192;-50
2022/09/17 04:40:46;;;;;;;7.57;1.47;;;11.50;99.90;;;;;;5041919;28;20310;-47
2022/09/17 04:43:13;;;;;;;9.57;2.60;;;11.50;99.90;;;;;;5042617;28;20558;-53
2022/09/17 04:45:41;;;;;;;13.43;2.40;;;11.50;99.90;;;;;;5042024;28;20381;-47
2022/09/17 04:48:09;;;;;;;10.00;2.57;;;11.50;99.90;;;;;;5045024;28;20222;-48
2022/09/17 04:50:36;;;;;;;18.33;2.47;;;11.50;99.90;;;;;;5025016;28;20700;-51
2022/09/17 04:53:03;;;;;;;11.07;2.03;;;11.40;99.90;;;;;;5037467;28;20214;-52
2022/09/17 04:55:30;;;;;;;8.80;2.20;;;11.40;99.90;;;;;;5047255;28;20211;-47
2022/09/17 04:57:58;;;;;;;11.37;2.27;;;11.40;99.90;;;;;;5040690;28;20266;-48
2022/09/17 05:00:24;;;;;;;11.63;2.47;;;11.40;99.90;;;;;;5043469;28;20215;-47
2022/09/17 05:02:54;;;;;;;13.07;2.83;;;11.30;99.90;;;;;;5027008;28;20195;-50
2022/09/17 05:05:23;;;;;;;10.73;2.23;;;11.30;99.90;;;;;;5016760;28;20219;-50
2022/09/17 05:07:50;;;;;;;10.83;2.70;;;11.40;99.90;;;;;;5035653;28;20199;-51
2022/09/17 05:10:19;;;;;;;13.03;1.57;;;11.30;99.90;;;;;;5023995;28;20195;-47
2022/09/17 05:12:49;;;;;;;10.23;2.03;;;11.30;99.90;;;;;;5020855;28;20199;-49
2022/09/17 05:15:16;;;;;;;13.50;2.77;;;11.30;99.90;;;;;;5034933;28;20217;-51
2022/09/17 05:17:43;;;;;;;11.00;2.67;;;11.30;99.90;;;;;;5040332;28;20200;-50
2022/09/17 05:20:10;;;;;;;11.10;2.00;;;11.30;99.90;;;;;;5042435;28;20290;-49
2022/09/17 05:22:42;;;;;;;8.80;1.70;;;11.30;99.90;;;;;;5027875;28;20226;-52
2022/09/17 05:25:09;;;;;;;12.67;2.13;;;11.20;99.90;;;;;;5046290;28;20211;-47
2022/09/17 05:27:36;;;;;;;16.23;2.17;;;11.20;99.90;;;;;;5041003;28;20196;-53
2022/09/17 05:30:04;;;;;;;10.87;2.80;;;11.20;99.90;;;;;;5041509;28;20191;-49
2022/09/17 05:32:31;;;;;;;9.87;2.13;;;11.20;99.90;;;;;;5042432;28;20545;-49
2022/09/17 05:34:58;;;;;;;12.63;2.60;;;11.20;99.90;;;;;;5039327;28;20214;-48
2022/09/17 05:37:25;;;;;;;10.17;2.37;;;11.20;99.90;;;;;;5030471;28;20213;-51
2022/09/17 05:39:54;;;;;;;10.90;1.80;;;11.20;99.90;;;;;;5043894;28;20837;-54
2022/09/17 05:42:21;;;;;;;11.23;1.97;;;11.20;99.90;;;;;;5047555;28;20206;-49
2022/09/17 05:44:48;;;;;;;15.83;2.10;;;11.30;99.90;;;;;;5039083;28;20219;-50
2022/09/17 05:47:15;;;;;;;8.80;1.97;;;11.30;99.90;;;;;;5042697;28;20660;-53
2022/09/17 05:49:42;;;;;;;11.10;2.33;;;11.30;99.90;;;;;;5041261;28;20188;-50
2022/09/17 05:52:09;;;;;;;11.70;2.37;;;11.30;99.90;;;;;;5029256;28;21306;-51
2022/09/17 05:54:36;;;;;;;9.40;2.60;;;11.20;99.90;;;;;;5043522;28;20229;-51
2022/09/17 05:57:05;;;;;;;11.30;2.03;;;11.20;99.90;;;;;;5040995;28;20187;-48
2022/09/17 05:59:32;;;;;;;12.17;1.90;;;11.30;99.90;;;;;;5043151;28;20203;-47
2022/09/17 06:01:58;;;;;;;10.33;1.93;;;11.30;99.90;;;;;;5039849;28;20242;-50
2022/09/17 06:04:25;;;;;;;12.53;1.73;;;11.30;99.90;;;;;;5041983;28;20213;-49
2022/09/17 06:06:52;;;;;;;15.27;2.67;;;11.20;99.90;;;;;;5025713;28;20219;-51
2022/09/17 06:09:19;;;;;;;11.70;2.27;;;11.20;99.90;;;;;;5042086;28;20218;-52
2022/09/17 06:11:46;;;;;;;11.97;1.93;;;11.20;99.90;;;;;;5035571;28;20203;-50
2022/09/17 06:14:15;;;;;;;12.70;2.37;;;11.20;99.90;;;;;;5041244;28;20202;-52
2022/09/17 06:16:41;;;;;;;10.17;2.00;;;11.20;99.90;;;;;;5040658;28;20527;-46
2022/09/17 06:19:08;;;;;;;10.30;1.60;;;11.20;99.90;;;;;;5041463;28;20187;-49
2022/09/17 06:21:35;;;;;;;5.67;1.63;;;11.30;99.90;;;;;;5039353;28;20288;-48
2022/09/17 06:24:02;;;;;;;9.67;2.23;;;11.30;99.90;;;;;;5026009;28;20203;-46
2022/09/17 06:26:29;;;;;;;9.87;2.23;;;11.30;99.90;;;;;;5042840;28;20187;-49
2022/09/17 06:28:58;;;;;;;15.00;2.77;;;11.30;99.90;;;;;;5046876;28;20198;-47
2022/09/17 06:31:26;;;;;;;10.20;1.70;;;11.30;99.90;;;;;;5042701;28;20202;-48
2022/09/17 06:33:55;;;;;;;14.30;2.23;;;11.30;99.90;;;;;;5044766;28;20301;-48
2022/09/17 06:36:22;;;;;;;9.17;1.47;;;11.30;99.90;;;;;;5043903;28;20656;-49
2022/09/17 06:38:49;;;;;;;10.50;1.63;;;11.30;99.90;;;;;;5031788;28;20196;-46
2022/09/17 06:41:16;;;;;;;6.97;1.60;;;11.20;99.90;;;;;;5044600;28;20226;-48
2022/09/17 06:43:44;;;;;;;7.03;1.73;;;11.20;99.90;;;;;;5044460;28;20189;-47
2022/09/17 06:46:11;;;;;;;10.63;1.77;;;11.10;99.90;;;;;;5045479;28;20221;-47
2022/09/17 06:48:40;;;;;;;7.70;1.77;;;11.20;99.90;;;;;;5044465;28;20191;-47
2022/09/17 06:51:08;;;;;;;6.07;1.33;;;11.20;99.90;;;;;;5046513;28;20192;-48
2022/09/17 06:53:36;;;;;;;7.10;1.50;;;11.20;99.90;;;;;;5029576;28;20375;-50
2022/09/17 06:56:05;;;;;;;6.07;1.50;;;11.20;99.90;;;;;;5046458;28;20211;-51
2022/09/17 06:58:32;;;;;;;11.10;1.63;;;11.30;99.90;;;;;;5042742;28;20193;-50
2022/09/17 07:01:00;;;;;;;11.67;1.77;;;11.40;99.90;;;;;;5046266;28;20646;-49
2022/09/17 07:03:27;;;;;;;8.20;1.23;;;11.40;99.90;;;;;;5041556;28;20270;-49
2022/09/17 07:05:56;;;;;;;5.87;1.53;;;11.50;99.90;;;;;;5046078;28;20234;-46
2022/09/17 07:08:24;;;;;;;7.10;1.53;;;11.60;99.90;;;;;;5042484;28;20270;-49
2022/09/17 07:10:54;;;;;;;3.50;1.00;;;11.60;99.90;;;;;;5033317;28;20219;-48
2022/09/17 07:13:22;;;;;;;9.10;1.50;;;11.70;99.90;;;;;;5041944;28;20278;-48
2022/09/17 07:15:53;;;;;;;4.93;1.43;;;11.80;99.90;;;;;;5046066;28;20222;-51
2022/09/17 07:18:20;;;;;;;7.63;1.30;;;12.00;99.90;;;;;;5043369;28;20195;-47
2022/09/17 07:20:52;;;;;;;5.23;1.07;;;12.00;99.90;;;;;;5045410;28;20219;-50
2022/09/17 07:23:21;;;;;;;4.17;0.83;;;12.10;99.90;;;;;;5041997;28;20676;-50
2022/09/17 07:25:51;;;;;;;3.40;0.80;;;12.10;99.90;;;;;;5032385;28;20222;-50
2022/09/17 07:28:18;;;;;;;4.57;0.77;;;12.10;99.90;;;;;;5043404;28;20203;-52
2022/09/17 07:30:45;;;;;;;3.13;0.93;;;12.00;99.90;;;;;;5045019;28;20184;-49
2022/09/17 07:33:12;;;;;;;3.43;0.93;;;12.00;99.90;;;;;;5043079;28;20598;-51
2022/09/17 07:35:39;;;;;;;4.43;0.90;;;12.00;99.90;;;;;;5042740;28;20210;-47
2022/09/17 07:38:06;;;;;;;2.13;0.90;;;12.10;99.90;;;;;;5045264;28;20192;-49
2022/09/17 07:40:34;;;;;;;2.43;0.70;;;12.10;99.90;;;;;;5028570;28;21273;-52
2022/09/17 07:43:01;;;;;;;5.57;0.60;;;12.10;99.90;;;;;;5045469;28;20194;-46
2022/09/17 07:45:28;;;;;;;4.03;1.07;;;12.10;99.90;;;;;;5041000;28;21022;-48
2022/09/17 07:47:55;;;;;;;3.90;0.90;;;12.20;99.90;;;;;;5045538;28;20195;-48
2022/09/17 07:50:22;;;;;;;4.13;0.90;;;12.20;99.90;;;;;;5042232;28;20188;-51
2022/09/17 07:52:49;;;;;;;2.77;1.10;;;12.20;99.90;;;;;;5044436;28;20204;-51
2022/09/17 07:55:16;;;;;;;1.83;0.70;;;12.30;99.90;;;;;;5042708;28;20654;-50
2022/09/17 07:57:50;;;;;;;3.10;0.93;;;12.40;99.90;;;;;;5030824;28;20210;-48
2022/09/17 08:00:18;;;;;;;3.97;0.97;;;12.40;99.90;;;;;;5042438;28;20199;-51
2022/09/17 08:02:44;;;;;;;5.20;0.77;;;12.40;99.90;;;;;;5041497;28;20198;-49
2022/09/17 08:05:12;;;;;;;3.90;1.00;;;12.50;99.90;;;;;;5039280;28;20199;-45
2022/09/17 08:07:39;;;;;;;4.63;1.40;;;12.60;99.90;;;;;;5047570;28;20538;-48
2022/09/17 08:10:06;;;;;;;5.80;0.80;;;12.60;99.90;;;;;;5040549;28;20187;-53
2022/09/17 08:12:33;;;;;;;2.87;1.10;;;12.70;99.90;;;;;;5032623;28;20732;-51
2022/09/17 08:15:01;;;;;;;6.47;1.00;;;12.80;99.90;;;;;;5040478;28;20294;-50
2022/09/17 08:17:28;;;;;;;3.90;0.70;;;12.90;99.90;;;;;;5046330;28;20207;-51
2022/09/17 08:19:55;;;;;;;7.00;1.10;;;13.00;99.90;;;;;;5043254;28;20249;-49
2022/09/17 08:22:22;;;;;;;3.10;1.37;;;13.10;99.90;;;;;;5037280;28;20220;-49
2022/09/17 08:24:49;;;;;;;4.53;1.10;;;13.10;99.90;;;;;;5040564;28;20218;-50
2022/09/17 08:27:16;;;;;;;7.27;1.10;;;13.10;99.90;;;;;;5046176;28;20309;-50
2022/09/17 08:29:43;;;;;;;4.80;0.93;;;13.10;99.90;;;;;;5032105;28;20260;-47
2022/09/17 08:32:11;;;;;;;5.43;1.20;;;13.20;99.90;;;;;;5038620;28;20199;-50
2022/09/17 08:34:38;;;;;;;2.53;0.77;;;13.30;99.90;;;;;;5056602;28;20268;-53
2022/09/17 08:37:05;;;;;;;3.80;1.37;;;13.40;99.90;;;;;;5037203;28;20187;-51
2022/09/17 08:39:32;;;;;;;4.93;0.93;;;13.40;99.90;;;;;;5047465;28;20211;-51
2022/09/17 08:42:08;;;;;;;4.73;1.20;;;13.50;99.90;;;;;;5036228;28;20218;-52
2022/09/17 08:44:41;;;;;;;4.83;0.80;;;13.50;99.90;;;;;;5023784;28;20254;-51
2022/09/17 08:47:20;;;;;;;6.63;1.10;;;13.50;99.90;;;;;;5037892;28;20266;-53
2022/09/17 08:49:52;;;;;;;9.53;2.00;;;13.50;99.90;;;;;;5045453;28;20237;-52
2022/09/17 08:52:44;;;;;;;3.77;1.00;;;13.60;99.90;;;;;;5038633;28;20207;-50
2022/09/17 08:55:23;;;;;;;6.90;1.37;;;13.60;99.90;;;;;;5046655;28;20276;-49
2022/09/17 08:57:58;;;;;;;6.10;1.43;;;13.60;99.90;;;;;;5043645;28;20276;-52
2022/09/17 09:00:26;;;;;;;7.10;1.33;;;13.50;99.90;;;;;;5032837;28;20233;-53
2022/09/17 09:03:13;;;;;;;3.30;0.60;;;13.10;99.90;;;;;;5039149;28;20273;-51
2022/09/17 09:05:44;;;;;;;4.97;0.87;;;12.70;99.90;;;;;;5049841;28;20222;-51
2022/09/17 09:08:21;;;;;;;3.90;0.80;;;12.50;99.90;;;;;;5030651;28;20769;-52
2022/09/17 09:10:51;;;;;;;4.87;0.97;;;12.40;99.90;;;;;;5044578;28;20207;-48
2022/09/17 09:13:21;;;;;;;4.33;1.17;;;12.30;99.90;;;;;;5044831;28;20267;-49
2022/09/17 09:15:54;;;;;;;4.80;1.17;;;12.30;99.90;;;;;;5038670;28;20325;-49
2022/09/17 09:18:25;;;;;;;4.27;0.80;;;12.30;99.90;;;;;;5039701;28;20199;-51
2022/09/17 09:20:54;;;;;;;4.43;0.80;;;12.30;99.90;;;;;;5043591;28;20234;-49
2022/09/17 09:23:27;;;;;;;2.30;0.30;;;12.20;99.90;;;;;;5027911;28;20322;-49
2022/09/17 09:26:01;;;;;;;1.60;0.30;;;12.10;99.90;;;;;;5042274;28;20588;-50
2022/09/17 09:28:39;;;;;;;1.40;0.30;;;12.00;99.90;;;;;;5040493;28;20213;-48
2022/09/17 09:31:18;;;;;;;2.20;0.30;;;12.00;99.90;;;;;;5029723;28;20187;-49
2022/09/17 09:33:48;;;;;;;1.47;0.40;;;11.90;99.90;;;;;;5040443;28;20195;-49
2022/09/17 09:36:20;;;;;;;0.40;0.20;;;11.90;99.90;;;;;;5045603;28;20222;-50
2022/09/17 09:38:55;;;;;;;0.87;0.20;;;11.90;99.90;;;;;;5043278;28;20230;-52
2022/09/17 09:41:31;;;;;;;0.90;0.30;;;11.80;99.90;;;;;;5046834;28;20213;-48
2022/09/17 09:44:02;;;;;;;0.73;0.40;;;11.80;99.90;;;;;;5035639;28;20209;-47
2022/09/17 09:46:40;;;;;;;2.83;0.50;;;11.90;99.90;;;;;;5041541;28;20222;-51
2022/09/17 09:49:21;;;;;;;1.73;0.33;;;12.00;99.90;;;;;;5036824;28;20202;-52
2022/09/17 09:51:56;;;;;;;1.23;0.40;;;12.20;99.90;;;;;;5037411;28;20210;-50
2022/09/17 09:54:37;;;;;;;1.50;0.40;;;12.30;99.90;;;;;;5035074;28;20823;-49
2022/09/17 09:57:07;;;;;;;3.60;0.50;;;12.40;99.90;;;;;;5040204;28;20204;-47
2022/09/17 09:59:35;;;;;;;4.10;0.47;;;12.30;99.90;;;;;;5039182;28;20202;-46
2022/09/17 10:02:03;;;;;;;1.23;0.30;;;12.40;99.90;;;;;;5029965;28;20206;-50
2022/09/17 10:04:32;;;;;;;2.13;0.50;;;12.40;99.90;;;;;;5040259;28;20215;-45
2022/09/17 10:07:02;;;;;;;0.87;0.30;;;12.50;99.90;;;;;;5048863;28;20186;-47
2022/09/17 10:09:31;;;;;;;2.60;0.40;;;12.70;99.90;;;;;;5037759;28;20207;-52
2022/09/17 10:12:14;;;;;;;1.17;0.60;;;12.80;99.90;;;;;;5035849;28;20222;-50
2022/09/17 10:14:41;;;;;;;3.13;0.43;;;12.90;99.90;;;;;;5036761;28;20211;-50
2022/09/17 10:17:18;;;;;;;3.33;0.80;;;12.90;99.90;;;;;;5033082;28;20301;-50
2022/09/17 10:19:47;;;;;;;2.10;0.60;;;13.00;99.90;;;;;;5040877;28;20660;-52
2022/09/17 10:22:24;;;;;;;4.03;0.60;;;13.00;99.90;;;;;;5039426;28;20211;-49
2022/09/17 10:24:53;;;;;;;2.73;0.53;;;13.00;99.90;;;;;;5044979;28;20226;-50
2022/09/17 10:27:22;;;;;;;2.23;0.50;;;13.00;99.90;;;;;;5052287;28;20194;-50
2022/09/17 10:29:51;;;;;;;1.60;0.60;;;13.20;99.90;;;;;;5040514;28;20707;-50
2022/09/17 10:32:20;;;;;;;1.67;0.50;;;13.20;99.90;;;;;;5018259;28;20218;-47
2022/09/17 10:35:03;;;;;;;2.00;0.70;;;13.20;99.90;;;;;;5033730;28;20233;-48
2022/09/17 10:37:43;;;;;;;0.70;0.50;;;13.10;99.90;;;;;;5033028;28;20227;-52
2022/09/17 10:40:26;;;;;;;4.37;1.17;;;13.20;99.90;;;;;;5031202;28;20202;-49
2022/09/17 10:43:21;;;;;;;3.10;0.60;;;13.20;99.90;;;;;;5033327;28;20223;-49
2022/09/17 10:45:57;;;;;;;3.73;0.90;;;13.20;99.90;;;;;;5037403;28;20234;-53
2022/09/17 10:48:27;;;;;;;4.77;0.67;;;13.10;99.90;;;;;;5020644;28;20945;-49
2022/09/17 10:50:56;;;;;;;7.87;0.90;;;13.10;99.90;;;;;;5037064;28;20242;-52
2022/09/17 10:53:25;;;;;;;5.77;1.10;;;13.00;99.90;;;;;;5041579;28;20244;-52
2022/09/17 10:55:57;;;;;;;4.13;0.67;;;13.00;99.90;;;;;;5033050;28;20231;-48
2022/09/17 10:58:33;;;;;;;4.80;0.60;;;13.00;99.90;;;;;;5040049;28;20191;-49
2022/09/17 11:01:10;;;;;;;3.93;0.80;;;13.10;99.90;;;;;;5035876;28;20219;-49
2022/09/17 11:03:59;;;;;;;2.40;0.70;;;13.20;99.90;;;;;;5024957;28;20222;-51
2022/09/17 11:06:59;;;;;;;1.20;0.40;;;13.20;99.90;;;;;;5038118;28;20882;-48
2022/09/17 11:09:38;;;;;;;5.20;0.90;;;13.30;99.90;;;;;;5038338;28;20321;-50
2022/09/17 11:12:23;;;;;;;3.70;0.77;;;13.30;99.90;;;;;;5038478;28;20207;-49
2022/09/17 11:14:56;;;;;;;2.70;0.80;;;13.30;99.90;;;;;;5041090;28;21047;-53
2022/09/17 11:17:39;;;;;;;6.03;0.70;;;13.50;99.90;;;;;;5040875;28;20212;-50
2022/09/17 11:20:17;;;;;;;4.40;1.10;;;13.50;99.90;;;;;;5031413;28;20199;-49
2022/09/17 11:22:58;;;;;;;3.20;0.93;;;13.40;99.90;;;;;;5036860;28;20219;-53
2022/09/17 11:25:39;;;;;;;1.10;0.83;;;13.50;99.90;;;;;;5032681;28;20230;-49
2022/09/17 11:28:16;;;;;;;6.97;1.00;;;13.50;99.90;;;;;;5037063;28;20207;-50
2022/09/17 11:30:54;;;;;;;3.20;0.70;;;13.60;99.90;;;;;;5045923;28;20195;-54
2022/09/17 11:33:32;;;;;;;3.37;0.63;;;13.70;99.90;;;;;;5038434;28;20206;-51
2022/09/17 11:36:03;;;;;;;1.50;0.60;;;13.70;99.90;;;;;;5028059;28;20226;-51
2022/09/17 11:38:39;;;;;;;4.93;0.97;;;13.70;99.90;;;;;;5045788;28;20222;-51
2022/09/17 11:41:11;;;;;;;1.50;0.57;;;13.70;99.90;;;;;;5045556;28;20203;-52
2022/09/17 11:43:41;;;;;;;2.43;0.60;;;13.80;99.90;;;;;;5042322;28;20223;-53
2022/09/17 11:46:13;;;;;;;3.03;0.70;;;13.80;99.90;;;;;;5044980;28;20215;-55
2022/09/17 11:48:46;;;;;;;3.70;0.70;;;13.90;99.90;;;;;;5044070;28;20191;-55
2022/09/17 11:51:39;;;;;;;4.70;0.83;;;14.00;99.90;;;;;;5028353;28;20214;-57
2022/09/17 11:54:15;;;;;;;3.80;0.60;;;14.20;99.90;;;;;;5040649;28;20196;-48
2022/09/17 11:56:44;;;;;;;2.47;0.87;;;14.10;99.90;;;;;;5040306;28;20207;-50
2022/09/17 11:59:18;;;;;;;3.47;0.60;;;14.10;99.90;;;;;;5051251;28;20195;-47
2022/09/17 12:01:50;;;;;;;3.90;0.90;;;14.20;99.90;;;;;;5041144;28;20546;-49
2022/09/17 12:04:36;;;;;;;2.90;0.70;;;14.10;99.90;;;;;;5042508;28;20202;-47
2022/09/17 12:07:16;;;;;;;5.83;1.03;;;14.20;99.90;;;;;;5027879;28;20219;-49
2022/09/17 12:09:48;;;;;;;3.53;0.90;;;14.10;99.90;;;;;;5041030;28;20223;-51
2022/09/17 12:12:19;;;;;;;4.57;1.00;;;14.10;99.90;;;;;;5047889;28;20203;-49
2022/09/17 12:14:49;;;;;;;4.27;1.13;;;14.00;99.90;;;;;;5036066;28;20842;-49
2022/09/17 12:17:21;;;;;;;4.37;1.43;;;14.00;99.90;;;;;;5049121;28;20217;-52
2022/09/17 12:19:53;;;;;;;6.77;1.50;;;14.10;99.90;;;;;;5039403;28;20317;-49
2022/09/17 12:22:23;;;;;;;6.50;1.10;;;14.20;99.90;;;;;;5033156;28;20215;-51
2022/09/17 12:24:52;;;;;;;3.13;1.20;;;14.20;99.90;;;;;;5039119;28;20305;-49
2022/09/17 12:27:34;;;;;;;3.77;1.00;;;14.40;99.90;;;;;;5050980;28;20210;-48
2022/09/17 12:30:13;;;;;;;5.33;1.20;;;14.50;99.90;;;;;;5042653;28;20195;-48
2022/09/17 12:32:55;;;;;;;6.07;1.53;;;14.60;99.90;;;;;;5036127;28;20203;-52
2022/09/17 12:35:49;;;;;;;2.47;1.30;;;14.60;99.90;;;;;;5031390;28;20223;-47
2022/09/17 12:38:35;;;;;;;2.73;0.90;;;14.50;99.90;;;;;;5028980;28;20778;-50
2022/09/17 12:41:10;;;;;;;4.27;1.50;;;14.60;99.90;;;;;;5038388;28;20183;-52
2022/09/17 12:43:55;;;;;;;3.63;1.33;;;14.60;99.90;;;;;;5039112;28;20230;-48
2022/09/17 12:46:35;;;;;;;5.80;1.10;;;14.80;99.90;;;;;;5049365;28;20640;-49
2022/09/17 12:49:22;;;;;;;4.97;1.50;;;14.90;99.90;;;;;;5054620;28;20206;-49
2022/09/17 12:51:54;;;;;;;5.23;1.13;;;15.00;99.90;;;;;;5030280;28;21192;-50
2022/09/17 12:54:44;;;;;;;3.93;1.40;;;15.20;99.90;;;;;;5027252;28;20506;-47
2022/09/17 12:57:21;;;;;;;6.23;1.23;;;15.20;99.90;;;;;;5039409;28;20213;-49
2022/09/17 12:59:53;;;;;;;6.83;1.23;;;15.10;99.90;;;;;;5057602;28;20657;-45
2022/09/17 13:02:25;;;;;;;2.13;1.40;;;15.00;99.90;;;;;;5055125;28;20221;-44
2022/09/17 13:05:35;;;;;;;7.13;1.30;;;15.10;99.90;;;;;;5034776;28;20389;-45